Time;durP1;ratioP1;P1;durP2;ratioP2;P2;SDS_P1;SDS_P2;PMS_P1;PMS_P2;Temp;Humidity;BMP_temperature;BMP_pressure;BME280_temperature;BME280_humidity;BME280_pressure;Samples;Min_cycle;Max_cycle;Signal;HPM_P1;HPM_P2
2022/05/13 10:36:06;;;;;;;6.38;2.00;;;;;;;21.03;53.08;99383.47;5129743;27;20364;-76
2022/05/13 10:38:45;;;;;;;8.15;3.10;;;;;;;21.06;51.54;99402.31;5130934;27;20044;-78
2022/05/13 10:41:21;;;;;;;5.30;1.67;;;;;;;21.48;52.30;99404.75;5129192;27;20061;-78
2022/05/13 10:43:53;;;;;;;7.47;1.70;;;;;;;21.34;50.94;99401.44;5119001;28;20047;-77
2022/05/13 10:46:24;;;;;;;5.40;1.73;;;;;;;20.83;52.40;99404.09;5125882;27;20054;-77
2022/05/13 10:48:52;;;;;;;12.38;3.05;;;;;;;20.48;53.46;99387.63;5118223;27;20504;-77
2022/05/13 10:51:26;;;;;;;6.03;1.48;;;;;;;20.76;51.52;99416.38;5128795;27;20047;-77
2022/05/13 10:54:05;;;;;;;5.80;1.90;;;;;;;20.97;52.29;99384.47;5107358;28;20044;-77
2022/05/13 10:56:39;;;;;;;4.50;1.50;;;;;;;21.53;52.31;99391.03;5108322;28;20043;-78
2022/05/13 10:59:17;;;;;;;8.38;1.92;;;;;;;21.92;49.27;99393.00;5109417;27;20047;-77
2022/05/13 11:01:52;;;;;;;6.45;1.70;;;;;;;22.58;48.75;99395.88;5128272;27;20054;-77
2022/05/13 11:04:27;;;;;;;4.97;1.80;;;;;;;22.33;49.30;99365.91;5127914;27;20051;-78
2022/05/13 11:07:07;;;;;;;7.00;1.63;;;;;;;22.32;48.92;99397.47;5128678;27;20486;-78
2022/05/13 11:09:38;;;;;;;;;;;;;;;22.07;49.28;99406.22;5129191;27;20410;-77
2022/05/13 11:12:14;;;;;;;3.95;1.67;;;;;;;21.60;50.56;99385.31;5127715;27;20370;-77
2022/05/13 11:14:52;;;;;;;7.07;1.85;;;;;;;21.52;49.95;99405.94;5127881;27;20380;-77
2022/05/13 11:17:35;;;;;;;8.45;2.30;;;;;;;21.52;50.51;99400.41;5121522;27;20508;-77
2022/05/13 11:20:14;;;;;;;6.40;1.60;;;;;;;21.94;49.96;99390.81;5128154;28;20047;-78
2022/05/13 11:22:49;;;;;;;5.70;1.88;;;;;;;21.69;50.57;99397.66;5127691;28;20051;-78
2022/05/13 11:28:22;;;;;;;9.07;2.25;;;;;;;21.78;50.93;99388.91;5127056;27;20054;-77
2022/05/13 11:31:08;;;;;;;5.05;1.90;;;;;;;21.94;49.29;99384.47;5128199;27;20055;-77
2022/05/13 11:33:42;;;;;;;8.57;1.92;;;;;;;22.26;52.32;99359.69;5125845;27;20047;-77
2022/05/13 11:36:21;;;;;;;4.50;1.88;;;;;;;22.42;51.27;99364.34;5125802;27;20043;-77
2022/05/13 11:39:09;;;;;;;4.60;1.93;;;;;;;22.38;49.56;99352.13;5128167;27;20052;-77
2022/05/13 11:41:46;;;;;;;8.55;2.42;;;;;;;22.37;47.64;99371.75;5124070;27;20359;-77
2022/05/13 11:44:18;;;;;;;11.13;2.00;;;;;;;22.62;47.84;99365.69;5106607;28;20044;-78
2022/05/13 11:46:55;;;;;;;6.82;1.80;;;;;;;22.50;47.79;99365.00;5096739;28;20048;-78
2022/05/13 11:49:27;;;;;;;4.47;1.70;;;;;;;22.67;50.17;99340.81;5097792;28;20061;-77
2022/05/13 11:51:54;;;;;;;5.65;1.75;;;;;;;22.58;48.19;99350.69;5113931;28;20130;-77
2022/05/13 11:54:28;;;;;;;7.90;1.70;;;;;;;23.20;48.10;99365.19;5113019;28;20048;-77
2022/05/13 11:57:23;;;;;;;7.03;1.65;;;;;;;22.96;47.78;99359.97;5112977;28;20471;-78
2022/05/13 11:59:51;;;;;;;3.88;1.65;;;;;;;23.05;48.24;99335.38;5114580;28;20047;-77
2022/05/13 12:02:48;;;;;;;9.88;2.15;;;;;;;23.61;46.70;99360.84;5113227;28;20062;-78
2022/05/13 12:05:41;;;;;;;5.75;1.90;;;;;;;23.69;44.74;99349.22;5112282;28;20047;-77
2022/05/13 12:08:20;;;;;;;3.25;1.60;;;;;;;23.65;46.41;99328.69;5113879;28;20055;-77
2022/05/13 12:10:56;;;;;;;4.43;1.73;;;;;;;23.14;45.43;99331.91;5102525;28;20176;-77
2022/05/13 12:13:33;;;;;;;5.22;1.80;;;;;;;23.40;44.45;99334.06;5093066;28;20051;-77
2022/05/13 12:16:19;;;;;;;4.75;1.27;;;;;;;23.84;43.69;99362.38;5103106;28;20052;-76
2022/05/13 12:18:53;;;;;;;6.65;2.22;;;;;;;23.62;44.79;99336.69;5096184;28;20678;-77
2022/05/13 12:21:32;;;;;;;5.00;1.55;;;;;;;23.91;46.57;99342.75;5117936;27;20048;-77
2022/05/13 12:24:04;;;;;;;6.43;2.22;;;;;;;23.26;46.42;99317.84;5108226;27;20044;-77
2022/05/13 12:27:07;;;;;;;8.18;2.92;;;;;;;22.92;46.32;99339.41;5107523;28;20055;-77
2022/05/13 12:29:59;;;;;;;6.03;1.40;;;;;;;23.58;43.70;99319.75;5114225;28;20132;-77
2022/05/13 12:32:38;;;;;;;10.75;1.70;;;;;;;24.15;42.32;99326.50;5112835;28;20048;-77
2022/05/13 12:38:06;;;;;;;5.03;1.50;;;;;;;23.73;41.92;99320.97;5113022;28;20051;-77
2022/05/13 12:40:36;;;;;;;4.38;1.30;;;;;;;23.41;42.26;99322.69;5107090;28;20051;-78
2022/05/13 12:43:14;;;;;;;7.10;1.67;;;;;;;23.74;41.76;99304.03;5111706;28;20059;-77
2022/05/13 12:46:00;;;;;;;2.83;1.20;;;;;;;24.13;43.17;99319.53;5113724;28;20051;-77
2022/05/13 12:48:26;;;;;;;5.03;1.42;;;;;;;24.27;41.93;99333.75;5106562;28;20082;-77
2022/05/13 12:51:15;;;;;;;4.15;1.23;;;;;;;23.92;40.11;99311.13;5112910;28;20044;-77
2022/05/13 12:53:49;;;;;;;2.95;1.17;;;;;;;24.01;40.56;99322.53;5112078;28;20084;-77
2022/05/13 12:56:23;;;;;;;8.27;1.88;;;;;;;23.94;41.37;99319.19;5110407;28;20055;-77
2022/05/13 12:58:59;;;;;;;6.22;1.52;;;;;;;23.72;41.02;99311.78;5111640;28;20048;-78
2022/05/13 13:01:28;;;;;;;5.55;1.13;;;;;;;23.98;40.66;99332.25;5112739;28;20055;-78
2022/05/13 13:03:55;;;;;;;8.77;1.58;;;;;;;24.50;41.94;99336.06;5095533;28;20415;-77
2022/05/13 13:06:26;;;;;;;4.30;1.50;;;;;;;24.37;40.17;99331.00;5091961;28;20423;-78
2022/05/13 13:08:54;;;;;;;5.82;1.40;;;;;;;24.51;39.19;99309.97;5092246;28;20052;-78
2022/05/13 13:11:29;;;;;;;2.65;1.20;;;;;;;24.52;38.55;99294.97;5091989;28;20051;-77
2022/05/13 13:14:00;;;;;;;6.72;1.33;;;;;;;24.62;39.41;99288.63;5104087;28;20050;-77
2022/05/13 13:16:37;;;;;;;3.65;1.00;;;;;;;24.94;38.61;99311.75;5111114;28;20168;-78
2022/05/13 13:19:13;;;;;;;7.35;1.67;;;;;;;24.75;37.67;99292.81;5112386;28;20059;-78
2022/05/13 13:21:41;;;;;;;3.40;1.17;;;;;;;24.96;37.18;99313.16;5112231;28;20090;-78
2022/05/13 13:24:14;;;;;;;3.88;0.90;;;;;;;25.06;37.54;99293.66;5110674;28;20447;-78
2022/05/13 13:26:43;;;;;;;4.65;1.40;;;;;;;24.91;36.86;99308.38;5109168;28;20048;-78
2022/05/13 13:29:11;;;;;;;3.07;1.20;;;;;;;24.70;36.66;99284.47;5103825;28;20058;-77
2022/05/13 13:31:44;;;;;;;9.07;2.05;;;;;;;24.52;37.28;99288.56;5112081;28;20295;-78
2022/05/13 13:34:23;;;;;;;1.40;0.90;;;;;;;24.66;35.15;99300.88;5109869;28;20096;-78
2022/05/13 13:36:50;;;;;;;3.93;1.23;;;;;;;24.24;34.45;99303.75;5111860;28;20048;-77
2022/05/13 13:39:18;;;;;;;4.03;1.00;;;;;;;24.63;36.63;99311.69;5111961;28;20540;-77
2022/05/13 13:41:48;;;;;;;5.68;1.27;;;;;;;24.92;37.25;99289.78;5112151;28;20043;-77
2022/05/13 13:44:14;;;;;;;;;;;;;;;24.35;35.50;99313.78;5108447;28;20157;-77
2022/05/13 13:46:47;;;;;;;6.13;1.20;;;;;;;24.29;34.55;99276.81;5107610;28;20186;-77
2022/05/13 13:49:18;;;;;;;1.92;0.80;;;;;;;24.42;35.92;99311.59;5091461;28;20554;-77
2022/05/13 13:51:50;;;;;;;7.72;1.20;;;;;;;24.63;37.05;99272.75;5091555;28;20113;-77
2022/05/13 13:54:22;;;;;;;4.88;0.70;;;;;;;24.74;35.00;99303.09;5094135;28;20043;-78
2022/05/13 13:56:55;;;;;;;4.13;1.00;;;;;;;24.24;33.87;99289.84;5111724;28;20079;-77
2022/05/13 13:59:26;;;;;;;2.63;1.00;;;;;;;24.47;35.40;99299.66;5108730;28;20125;-78
2022/05/13 14:01:55;;;;;;;2.08;0.95;;;;;;;24.35;33.68;99295.16;5109291;28;20047;-78
2022/05/13 14:04:24;;;;;;;3.78;1.00;;;;;;;24.77;35.47;99285.03;5110848;28;20051;-78
2022/05/13 14:06:53;;;;;;;9.18;1.95;;;;;;;24.73;34.08;99304.22;5111654;28;20398;-78
2022/05/13 14:09:24;;;;;;;2.70;1.10;;;;;;;24.36;34.38;99285.75;5111506;28;20051;-78
2022/05/13 14:11:52;;;;;;;6.15;1.10;;;;;;;24.04;35.54;99319.22;5110836;28;20343;-77
2022/05/13 14:14:19;;;;;;;2.33;0.93;;;;;;;24.35;33.40;99309.06;5110623;28;20055;-77
2022/05/13 14:16:52;;;;;;;3.25;1.00;;;;;;;24.54;35.02;99314.97;5111257;28;20050;-78
2022/05/13 14:19:22;;;;;;;1.48;0.80;;;;;;;24.41;33.96;99300.75;5100970;28;20132;-78
2022/05/13 14:21:51;;;;;;;1.70;0.98;;;;;;;24.29;35.36;99298.22;5111154;28;20051;-78
2022/05/13 14:24:31;;;;;;;2.85;1.20;;;;;;;24.09;36.14;99315.63;5110695;28;20431;-77
2022/05/13 14:27:00;;;;;;;6.00;1.42;;;;;;;23.98;36.75;99310.03;5110691;28;20051;-77
2022/05/13 14:29:32;;;;;;;3.55;1.23;;;;;;;24.32;37.27;99290.16;5111029;28;20051;-77
2022/05/13 14:32:06;;;;;;;2.28;0.90;;;;;;;23.83;32.82;99305.19;5111063;28;20054;-77
2022/05/13 14:34:35;;;;;;;3.40;1.00;;;;;;;23.75;33.12;99285.44;5109613;28;20043;-77
2022/05/13 14:37:06;;;;;;;4.78;1.08;;;;;;;23.98;33.86;99290.59;5097839;28;20044;-77
2022/05/13 14:39:51;;;;;;;5.75;1.25;;;;;;;24.32;33.12;99306.84;5111162;28;20130;-77
2022/05/13 14:42:24;;;;;;;2.22;0.95;;;;;;;24.17;34.20;99304.00;5109872;28;20044;-77
2022/05/13 14:44:54;;;;;;;5.05;1.02;;;;;;;24.10;34.85;99303.41;5111363;28;20044;-77
2022/05/13 14:47:33;;;;;;;6.75;1.00;;;;;;;24.09;33.15;99291.47;5110850;28;20048;-78
2022/05/13 14:50:13;;;;;;;3.92;2.28;;;;;;;24.40;34.83;99308.25;5111293;28;20073;-77
2022/05/13 14:52:44;;;;;;;2.50;1.10;;;;;;;23.72;35.41;99281.25;5110605;28;20130;-77
2022/05/13 14:55:21;;;;;;;5.65;1.23;;;;;;;24.06;35.45;99302.28;5098201;28;20540;-78
2022/05/13 14:57:48;;;;;;;5.40;1.15;;;;;;;24.36;36.14;99298.81;5107657;28;20066;-77
2022/05/13 15:00:18;;;;;;;6.55;1.20;;;;;;;23.85;35.66;99311.34;5110134;28;20043;-77
2022/05/13 15:03:00;;;;;;;4.55;1.17;;;;;;;23.41;34.97;99294.94;5110305;28;20490;-77
2022/05/13 15:05:33;;;;;;;4.65;1.00;;;;;;;24.10;36.38;99309.78;5111237;28;20136;-77
2022/05/13 15:08:00;;;;;;;3.33;1.00;;;;;;;23.78;35.76;99279.34;5111123;28;20050;-77
2022/05/13 15:10:29;;;;;;;3.75;1.10;;;;;;;24.16;36.24;99305.09;5104912;28;20449;-77
2022/05/13 15:12:56;;;;;;;3.17;0.80;;;;;;;24.23;34.93;99288.19;5108276;28;20062;-77
2022/05/13 15:15:24;;;;;;;2.38;0.88;;;;;;;24.14;35.41;99285.09;5110761;28;20039;-77
2022/05/13 15:17:53;;;;;;;5.10;1.17;;;;;;;24.44;35.57;99283.53;5110812;28;20052;-77
2022/05/13 15:20:21;;;;;;;6.80;1.13;;;;;;;24.15;35.23;99303.44;5110981;28;20067;-78
2022/05/13 15:22:50;;;;;;;5.28;1.30;;;;;;;24.17;36.05;99285.38;5113858;28;20455;-79
2022/05/13 15:25:17;;;;;;;3.25;0.90;;;;;;;24.26;35.61;99285.69;5114509;28;20135;-78
2022/05/13 15:27:44;;;;;;;1.85;0.95;;;;;;;24.12;34.10;99276.22;5110349;28;20051;-78
2022/05/13 15:30:12;;;;;;;3.90;1.00;;;;;;;24.44;34.88;99303.81;5113836;28;20751;-78
2022/05/13 15:32:39;;;;;;;4.85;1.30;;;;;;;24.62;34.63;99296.13;5113637;28;20439;-78
2022/05/13 15:35:06;;;;;;;4.25;1.20;;;;;;;24.61;35.44;99291.66;5105673;28;20055;-79
2022/05/13 15:37:33;;;;;;;2.70;0.95;;;;;;;24.33;33.56;99311.28;5114126;28;20048;-79
2022/05/13 15:40:05;;;;;;;2.25;0.80;;;;;;;24.32;34.42;99311.56;5113006;28;20505;-78
2022/05/13 15:42:31;;;;;;;4.32;1.00;;;;;;;24.55;35.30;99315.78;5113536;28;20044;-78
2022/05/13 15:44:58;;;;;;;5.32;0.90;;;;;;;24.18;35.34;99286.25;5114029;28;20058;-78
2022/05/13 15:47:28;;;;;;;6.78;1.25;;;;;;;24.28;33.80;99313.22;5114461;28;20063;-78
2022/05/13 15:52:42;;;;;;;2.65;0.90;;;;;;;24.27;34.71;99292.94;5113220;28;20051;-78
2022/05/13 15:55:11;;;;;;;11.48;0.88;;;;;;;24.19;33.67;99304.56;5105666;28;20048;-79
2022/05/13 15:57:41;;;;;;;2.42;0.93;;;;;;;24.18;33.19;99302.91;5107261;28;20040;-78
2022/05/13 16:00:16;;;;;;;4.57;0.90;;;;;;;24.17;34.47;99296.50;5112910;28;20058;-79
2022/05/13 16:02:43;;;;;;;5.28;0.85;;;;;;;24.35;35.50;99288.78;5113255;28;20079;-78
2022/05/13 16:05:10;;;;;;;5.30;0.93;;;;;;;24.23;34.38;99308.47;5113750;28;20052;-79
2022/05/13 16:07:37;;;;;;;4.65;0.90;;;;;;;23.85;35.50;99285.53;5113268;28;20093;-78
2022/05/13 16:10:06;;;;;;;5.03;0.90;;;;;;;23.79;35.01;99284.63;5113739;28;20104;-78
2022/05/13 16:12:38;;;;;;;2.25;0.93;;;;;;;23.95;34.13;99302.25;5108146;28;20063;-78
2022/05/13 16:15:06;;;;;;;2.92;0.90;;;;;;;23.63;34.36;99300.34;5112017;28;20052;-78
2022/05/13 16:17:33;;;;;;;3.28;1.48;;;;;;;23.64;34.44;99281.78;5113366;28;20116;-78
2022/05/13 16:20:06;;;;;;;6.97;1.00;;;;;;;23.93;34.08;99289.72;5104095;28;20050;-78
2022/05/13 16:22:34;;;;;;;6.75;1.17;;;;;;;23.96;33.73;99289.19;5098267;28;20075;-78
2022/05/13 16:25:05;;;;;;;2.63;0.82;;;;;;;24.31;33.71;99304.31;5111389;28;20044;-78
2022/05/13 16:27:36;;;;;;;2.75;0.85;;;;;;;24.34;33.74;99304.63;5108882;28;20044;-79
2022/05/13 16:30:04;;;;;;;6.80;1.20;;;;;;;24.34;34.56;99285.19;5102675;28;20075;-79
2022/05/13 16:32:30;;;;;;;4.20;0.98;;;;;;;24.31;34.26;99282.94;5107471;28;20050;-78
2022/05/13 16:34:57;;;;;;;2.42;0.80;;;;;;;24.08;34.10;99275.09;5110747;28;20058;-78
2022/05/13 16:40:09;;;;;;;3.70;0.90;;;;;;;24.10;32.93;99303.41;5110130;28;20055;-78
2022/05/13 16:42:36;;;;;;;2.00;0.68;;;;;;;24.16;32.38;99280.97;5110651;28;20059;-79
2022/05/13 16:45:04;;;;;;;2.20;0.80;;;;;;;23.66;31.64;99280.38;5106934;28;21613;-78
2022/05/13 16:47:30;;;;;;;11.32;1.30;;;;;;;23.84;34.70;99273.53;5113579;28;20044;-78
2022/05/13 16:49:57;;;;;;;4.45;0.80;;;;;;;23.75;32.93;99308.47;5096070;28;20053;-79
2022/05/13 16:52:24;;;;;;;3.00;0.77;;;;;;;23.92;33.67;99305.56;5105721;28;20483;-79
2022/05/13 16:54:51;;;;;;;6.68;1.00;;;;;;;23.65;33.39;99273.19;5109519;28;20040;-78
2022/05/13 16:57:17;;;;;;;3.78;1.38;;;;;;;23.30;32.86;99274.59;5103966;27;20075;-79
2022/05/13 16:59:45;;;;;;;8.18;1.80;;;;;;;23.22;33.09;99269.56;5097909;28;20367;-78
2022/05/13 17:02:12;;;;;;;3.40;1.13;;;;;;;23.24;33.75;99299.78;5107443;28;20048;-78
2022/05/13 17:04:38;;;;;;;8.75;1.20;;;;;;;22.93;34.16;99272.63;5104815;28;20046;-78
2022/05/13 17:07:05;;;;;;;2.63;0.65;;;;;;;22.68;33.93;99283.47;5105356;28;20040;-78
2022/05/13 17:17:45;;;;;;;4.63;1.15;;;;;;;22.24;35.43;99303.75;5109960;28;20166;-80
2022/05/13 17:20:12;;;;;;;4.40;0.90;;;;;;;22.07;35.44;99284.41;5110351;28;20380;-80
2022/05/13 17:22:38;;;;;;;1.98;1.00;;;;;;;22.00;34.65;99306.75;5111252;28;20423;-80
2022/05/13 17:25:06;;;;;;;3.40;0.70;;;;;;;21.90;36.85;99315.78;5109821;28;20043;-80
2022/05/13 17:27:37;;;;;;;3.60;1.02;;;;;;;21.87;38.06;99301.59;5109230;28;20084;-80
2022/05/13 17:30:07;;;;;;;4.15;0.80;;;;;;;21.61;37.13;99290.19;5111890;28;20131;-80
2022/05/13 17:32:36;;;;;;;2.58;1.00;;;;;;;21.43;37.19;99291.25;5103670;28;20132;-80
2022/05/13 17:35:05;;;;;;;4.53;1.08;;;;;;;21.46;37.28;99303.75;5104884;28;20131;-79
2022/05/13 17:37:35;;;;;;;4.22;1.10;;;;;;;21.45;37.77;99305.66;5101641;28;20078;-80
2022/05/13 17:40:07;;;;;;;5.03;1.02;;;;;;;21.53;37.96;99316.34;5106449;28;20048;-80
2022/05/13 17:42:34;;;;;;;8.30;2.20;;;;;;;21.33;37.32;99305.78;5111478;28;20043;-80
2022/05/13 17:45:01;;;;;;;4.90;1.40;;;;;;;21.29;36.53;99331.41;5104565;28;20482;-80
2022/05/13 17:47:29;;;;;;;3.50;1.27;;;;;;;21.37;37.85;99325.44;5106674;28;20051;-80
2022/05/13 17:49:55;;;;;;;3.53;1.38;;;;;;;21.22;39.65;99313.03;5106191;28;20083;-80
2022/05/13 17:52:22;;;;;;;5.57;1.70;;;;;;;21.10;37.94;99312.28;5110781;28;20058;-80
2022/05/13 17:54:49;;;;;;;6.93;1.45;;;;;;;21.00;38.15;99303.81;5100196;28;20051;-80
2022/05/13 17:57:16;;;;;;;3.30;1.10;;;;;;;20.90;37.67;99320.25;5099988;28;20040;-80
2022/05/13 17:59:42;;;;;;;4.60;0.93;;;;;;;20.80;38.89;99318.13;5108756;28;20048;-80
2022/05/13 18:02:09;;;;;;;6.60;0.98;;;;;;;20.82;39.14;99333.38;5102856;28;20048;-80
2022/05/13 18:04:38;;;;;;;3.13;1.00;;;;;;;20.69;39.30;99317.94;5104353;28;20047;-80
2022/05/13 18:07:07;;;;;;;2.35;0.70;;;;;;;20.61;39.57;99325.75;5100849;28;20055;-81
2022/05/13 18:09:33;;;;;;;4.40;1.20;;;;;;;20.58;40.21;99309.66;5108982;28;20123;-80
2022/05/13 18:12:00;;;;;;;6.30;1.40;;;;;;;20.67;39.31;99320.13;5095190;27;20058;-80
2022/05/13 18:14:26;;;;;;;4.43;1.40;;;;;;;20.58;39.32;99323.47;5109779;27;20134;-80
2022/05/13 18:16:53;;;;;;;8.43;1.00;;;;;;;20.47;40.12;99322.44;5105376;28;20483;-80
2022/05/13 18:19:19;;;;;;;4.30;1.23;;;;;;;20.29;40.33;99316.03;5097709;28;20071;-80
2022/05/13 18:21:47;;;;;;;4.05;1.05;;;;;;;20.16;39.94;99317.16;5100699;28;20044;-80
2022/05/13 18:24:14;;;;;;;1.10;0.77;;;;;;;20.11;39.97;99330.84;5097876;28;20055;-80
2022/05/13 18:26:41;;;;;;;3.30;0.90;;;;;;;20.07;40.48;99323.31;5108439;28;20502;-80
2022/05/13 18:29:08;;;;;;;4.18;1.02;;;;;;;19.92;40.32;99330.16;5103870;28;20422;-80
2022/05/13 18:31:35;;;;;;;3.53;0.90;;;;;;;20.01;40.41;99343.56;5107030;28;20043;-80
2022/05/13 18:34:02;;;;;;;4.35;1.23;;;;;;;19.69;40.37;99333.75;5091329;28;20087;-80
2022/05/13 18:36:29;;;;;;;3.35;0.95;;;;;;;19.67;41.31;99351.63;5097962;28;20048;-80
2022/05/13 18:38:57;;;;;;;4.25;1.00;;;;;;;19.60;42.02;99341.56;5106796;28;20547;-80
2022/05/13 18:46:52;;;;;;;6.57;1.40;;;;;;;19.30;43.18;99343.56;5101026;28;20101;-80
2022/05/13 18:49:21;;;;;;;2.75;1.00;;;;;;;19.29;43.87;99367.53;5107171;28;20483;-80
2022/05/13 18:51:47;;;;;;;6.05;1.10;;;;;;;19.04;43.97;99332.72;5101922;28;20063;-80
2022/05/13 18:54:15;;;;;;;7.30;1.20;;;;;;;19.02;44.56;99358.84;5106733;28;20051;-80
2022/05/13 18:56:42;;;;;;;1.48;0.80;;;;;;;18.97;45.87;99361.44;5102690;28;20092;-80
2022/05/13 18:59:10;;;;;;;4.75;1.20;;;;;;;18.73;47.92;99342.91;5098756;28;20569;-79
2022/05/13 19:01:37;;;;;;;3.58;0.75;;;;;;;18.61;49.84;99366.81;5106743;28;20071;-80
2022/05/13 19:04:04;;;;;;;5.45;1.13;;;;;;;18.40;51.25;99359.91;5112338;28;20061;-80
2022/05/13 19:06:32;;;;;;;2.72;1.10;;;;;;;18.20;52.42;99368.38;5106690;28;20044;-80
2022/05/13 19:08:59;;;;;;;4.88;0.75;;;;;;;17.98;53.40;99368.84;5104321;28;20400;-80
2022/05/13 19:11:27;;;;;;;4.00;1.10;;;;;;;17.84;53.93;99379.13;5108617;28;20043;-79
2022/05/13 19:13:55;;;;;;;8.65;1.95;;;;;;;17.60;56.26;99382.72;5104839;28;20478;-80
2022/05/13 19:16:23;;;;;;;4.78;1.00;;;;;;;17.36;56.74;99357.81;5111748;28;20052;-79
2022/05/13 19:18:49;;;;;;;2.47;1.00;;;;;;;17.41;56.11;99368.13;5104685;28;20051;-79
2022/05/13 19:21:16;;;;;;;2.78;1.13;;;;;;;17.31;55.63;99371.34;5112049;28;20047;-79
2022/05/13 19:23:43;;;;;;;1.60;1.00;;;;;;;17.24;54.18;99384.31;5106868;28;20479;-80
2022/05/13 19:26:12;;;;;;;7.80;0.88;;;;;;;16.93;55.66;99355.81;5102396;28;20063;-79
2022/05/13 19:28:41;;;;;;;10.25;1.10;;;;;;;16.72;56.17;99371.50;5111219;28;20140;-79
2022/05/13 19:31:10;;;;;;;5.75;1.00;;;;;;;16.51;58.15;99369.09;5110036;28;20051;-80
2022/05/13 19:33:39;;;;;;;3.33;1.27;;;;;;;16.48;57.35;99391.50;5109945;28;20056;-80
2022/05/13 19:36:07;;;;;;;6.25;1.63;;;;;;;16.26;55.25;99370.69;5111664;28;20134;-79
2022/05/13 19:38:34;;;;;;;4.30;0.93;;;;;;;16.12;57.09;99401.13;5110073;28;20055;-80
2022/05/13 19:41:02;;;;;;;7.85;1.20;;;;;;;16.01;56.87;99380.69;5110195;28;20058;-80
2022/05/13 19:43:29;;;;;;;4.53;1.27;;;;;;;16.08;59.20;99406.22;5096520;28;20055;-79
2022/05/13 19:45:57;;;;;;;4.80;1.50;;;;;;;15.86;59.27;99389.16;5094335;28;20411;-79
2022/05/13 19:48:24;;;;;;;4.30;0.90;;;;;;;15.74;58.95;99394.41;5107075;28;20059;-79
2022/05/13 19:50:51;;;;;;;7.05;1.58;;;;;;;15.57;59.30;99386.63;5102934;28;20055;-79
2022/05/13 19:53:21;;;;;;;4.13;0.93;;;;;;;15.34;60.96;99373.38;5094115;28;20126;-79
2022/05/13 19:55:48;;;;;;;4.70;0.88;;;;;;;15.20;61.80;99397.19;5103532;28;20138;-79
2022/05/13 19:58:18;;;;;;;2.05;0.82;;;;;;;15.17;60.26;99408.53;5109933;28;20043;-79
2022/05/13 20:00:46;;;;;;;4.57;1.55;;;;;;;15.10;61.42;99391.28;5097996;28;20079;-79
2022/05/13 20:03:14;;;;;;;3.38;0.82;;;;;;;15.07;62.39;99390.84;5102706;28;20039;-79
2022/05/13 20:11:10;;;;;;;1.73;1.00;;;;;;;14.90;63.96;99393.97;5109278;28;20084;-78
2022/05/13 20:13:37;;;;;;;3.38;1.15;;;;;;;14.62;66.78;99377.72;5105355;28;20044;-77
2022/05/13 20:16:05;;;;;;;2.67;1.20;;;;;;;14.48;67.17;99377.63;5101257;28;20119;-78
2022/05/13 20:18:37;;;;;;;5.13;1.10;;;;;;;14.33;68.37;99386.00;5104828;28;20502;-78
2022/05/13 20:23:49;;;;;;;1.75;0.70;;;;;;;13.96;72.05;99400.94;5125942;27;20523;-77
2022/05/13 20:26:18;;;;;;;7.32;2.60;;;;;;;14.09;72.84;99427.50;5096284;27;20056;-77
2022/05/13 20:28:45;;;;;;;4.13;1.30;;;;;;;13.83;73.89;99412.63;5099109;28;20043;-77
2022/05/13 20:31:17;;;;;;;5.03;1.08;;;;;;;13.88;74.20;99399.22;5110894;28;20043;-77
2022/05/13 20:33:45;;;;;;;1.70;1.10;;;;;;;13.78;75.97;99405.03;5101941;28;20052;-78
2022/05/13 20:36:13;;;;;;;3.47;1.35;;;;;;;13.72;77.01;99414.03;5105469;28;20516;-77
2022/05/13 20:38:40;;;;;;;1.77;0.80;;;;;;;13.60;77.80;99421.09;5105915;28;20147;-78
2022/05/13 20:41:07;;;;;;;5.60;1.17;;;;;;;13.88;76.04;99420.22;5108183;28;20499;-77
2022/05/13 20:43:33;;;;;;;3.95;1.05;;;;;;;13.73;76.77;99398.47;5109721;28;20043;-77
2022/05/13 20:46:00;;;;;;;5.38;1.20;;;;;;;13.70;76.68;99431.66;5109570;28;20153;-77
2022/05/13 20:48:27;;;;;;;7.28;1.83;;;;;;;13.57;77.07;99416.84;5105307;28;20043;-77
2022/05/13 20:50:55;;;;;;;3.75;1.15;;;;;;;13.59;78.46;99422.97;5109481;28;20050;-77
2022/05/13 20:53:22;;;;;;;4.50;1.48;;;;;;;13.32;80.73;99408.22;5108704;28;20052;-77
2022/05/13 20:55:48;;;;;;;3.17;1.17;;;;;;;13.03;82.36;99401.84;5105284;28;20052;-77
2022/05/13 20:58:15;;;;;;;1.10;1.00;;;;;;;13.23;82.98;99447.59;5098711;28;20054;-77
2022/05/13 21:00:42;;;;;;;0.98;0.70;;;;;;;13.20;83.64;99428.88;5109871;28;20044;-77
2022/05/13 21:03:09;;;;;;;5.40;1.10;;;;;;;13.00;84.09;99415.91;5101064;28;20608;-77
2022/05/13 21:05:40;;;;;;;1.98;1.10;;;;;;;12.86;85.04;99419.53;5105394;28;20060;-77
2022/05/13 21:08:10;;;;;;;6.10;1.40;;;;;;;12.90;84.74;99446.25;5108093;28;20422;-78
2022/05/13 21:10:38;;;;;;;1.60;1.20;;;;;;;12.81;85.86;99441.09;5095657;28;20056;-78
2022/05/13 21:13:05;;;;;;;2.08;1.27;;;;;;;12.93;84.90;99450.44;5107912;28;20048;-77
2022/05/13 21:15:32;;;;;;;1.70;0.90;;;;;;;12.81;85.31;99439.22;5107271;28;20060;-77
2022/05/13 21:18:01;;;;;;;5.38;1.13;;;;;;;12.54;85.52;99425.28;5100333;28;20040;-77
2022/05/13 21:20:28;;;;;;;5.65;1.30;;;;;;;12.38;86.65;99453.59;5102783;27;20396;-78
2022/05/13 21:22:54;;;;;;;3.00;1.13;;;;;;;12.53;87.64;99467.19;5100564;28;20066;-78
2022/05/13 21:25:23;;;;;;;2.53;1.10;;;;;;;12.21;88.43;99443.94;5119168;28;20059;-77
2022/05/13 21:27:51;;;;;;;4.57;1.00;;;;;;;12.10;89.17;99444.38;5111517;28;21833;-77
2022/05/13 21:30:18;;;;;;;4.07;1.70;;;;;;;12.32;86.48;99448.06;5099624;28;20138;-77
2022/05/13 21:38:14;;;;;;;5.30;0.90;;;;;;;12.18;88.86;99466.13;5098999;28;20063;-77
2022/05/13 21:40:42;;;;;;;3.20;1.30;;;;;;;11.86;89.71;99430.84;5104723;28;20138;-77
2022/05/13 21:43:09;;;;;;;3.67;1.40;;;;;;;11.84;90.05;99460.13;5106656;28;20554;-77
2022/05/13 21:45:35;;;;;;;6.25;1.20;;;;;;;11.84;90.43;99467.47;5104714;28;20047;-77
2022/05/13 21:48:02;;;;;;;3.83;1.20;;;;;;;11.47;91.38;99436.47;5107546;28;20056;-77
2022/05/13 21:50:30;;;;;;;6.20;1.10;;;;;;;11.56;90.74;99449.00;5106385;28;20873;-78
2022/05/13 21:52:57;;;;;;;6.32;1.27;;;;;;;11.67;89.95;99469.50;5107554;28;20702;-77
2022/05/13 21:55:24;;;;;;;4.70;1.13;;;;;;;11.50;90.42;99456.03;5103960;28;20122;-77
2022/05/13 21:57:51;;;;;;;4.00;1.40;;;;;;;11.41;91.66;99446.25;5096789;28;20043;-77
2022/05/13 22:00:57;;;;;;;4.90;1.42;;;;;;;11.33;92.91;99449.84;5098473;28;20040;-77
2022/05/13 22:03:25;;;;;;;4.90;1.50;;;;;;;11.36;93.45;99461.44;5088968;28;20051;-77
2022/05/13 22:05:52;;;;;;;2.90;1.25;;;;;;;11.22;93.98;99436.69;5089507;28;20056;-77
2022/05/13 22:08:21;;;;;;;3.10;1.27;;;;;;;11.24;94.57;99461.00;5108778;28;20052;-77
2022/05/13 22:10:48;;;;;;;1.70;1.20;;;;;;;11.19;95.20;99456.13;5109650;28;20120;-78
2022/05/13 22:13:15;;;;;;;1.65;1.20;;;;;;;11.23;95.09;99470.19;5106296;28;20649;-78
2022/05/13 22:15:41;;;;;;;4.45;1.45;;;;;;;11.37;93.69;99468.56;5109418;28;20051;-77
2022/05/13 22:18:08;;;;;;;3.17;1.10;;;;;;;11.00;93.54;99449.28;5107957;28;20063;-77
2022/05/13 22:20:36;;;;;;;2.17;1.10;;;;;;;10.88;94.28;99459.72;5104894;28;20044;-77
2022/05/13 22:23:03;;;;;;;2.05;1.05;;;;;;;10.94;94.74;99460.88;5098670;28;20048;-78
2022/05/13 22:25:30;;;;;;;3.17;0.98;;;;;;;10.87;94.90;99465.34;5105794;28;20047;-77
2022/05/13 22:27:57;;;;;;;2.13;1.15;;;;;;;10.73;95.98;99454.19;5106428;28;20047;-77
2022/05/13 22:30:23;;;;;;;1.83;1.13;;;;;;;10.92;95.49;99485.53;5102670;28;20049;-77
2022/05/13 22:32:50;;;;;;;3.53;1.30;;;;;;;10.95;96.67;99489.78;5102675;28;20059;-77
2022/05/13 22:35:17;;;;;;;2.50;0.95;;;;;;;10.95;97.00;99482.47;5096186;28;20044;-77
2022/05/13 22:37:47;;;;;;;3.55;1.38;;;;;;;10.72;97.07;99460.69;5092703;28;20051;-77
2022/05/13 22:40:14;;;;;;;2.35;1.30;;;;;;;10.80;96.74;99489.69;5092671;28;20059;-77
2022/05/13 22:42:40;;;;;;;2.53;1.00;;;;;;;10.68;96.62;99489.25;5103921;28;20050;-77
2022/05/13 22:45:09;;;;;;;3.33;1.25;;;;;;;10.63;97.86;99492.50;5111386;28;20063;-77
2022/05/13 22:47:35;;;;;;;2.70;1.27;;;;;;;10.58;97.79;99459.56;5109049;28;20040;-77
2022/05/13 22:50:02;;;;;;;4.20;1.25;;;;;;;10.56;98.11;99477.06;5111175;28;20429;-77
2022/05/13 22:52:28;;;;;;;3.50;1.25;;;;;;;10.57;98.43;99476.91;5112684;28;20055;-77
2022/05/13 22:54:56;;;;;;;2.03;1.20;;;;;;;10.56;98.50;99486.06;5091659;28;20047;-77
2022/05/13 22:57:24;;;;;;;4.70;1.20;;;;;;;10.52;98.14;99462.97;5099713;28;20071;-77
2022/05/13 22:59:51;;;;;;;6.15;1.50;;;;;;;10.69;97.31;99498.22;5092515;28;20410;-77
2022/05/13 23:02:17;;;;;;;3.50;1.45;;;;;;;10.46;97.13;99463.69;5092518;28;20043;-77